sensor_id;sensor_type;location;lat;lon;timestamp;P1;durP1;ratioP1;P2;durP2;ratioP2
57311;SDS011;43154;50.966;18.316;2023-04-24T00:02:05;16.10;;;7.00;;
57311;SDS011;43154;50.966;18.316;2023-04-24T00:04:32;12.60;;;6.20;;
57311;SDS011;43154;50.966;18.316;2023-04-24T00:06:57;14.90;;;6.60;;
57311;SDS011;43154;50.966;18.316;2023-04-24T00:09:25;14.40;;;6.60;;
57311;SDS011;43154;50.966;18.316;2023-04-24T00:11:52;15.20;;;6.90;;
57311;SDS011;43154;50.966;18.316;2023-04-24T00:14:18;13.90;;;6.20;;
57311;SDS011;43154;50.966;18.316;2023-04-24T00:16:44;14.10;;;6.80;;
57311;SDS011;43154;50.966;18.316;2023-04-24T00:19:10;14.00;;;6.30;;
57311;SDS011;43154;50.966;18.316;2023-04-24T00:21:36;12.90;;;6.00;;
57311;SDS011;43154;50.966;18.316;2023-04-24T00:24:03;15.70;;;7.20;;
57311;SDS011;43154;50.966;18.316;2023-04-24T00:26:29;13.10;;;6.00;;
57311;SDS011;43154;50.966;18.316;2023-04-24T00:28:55;13.30;;;5.80;;
57311;SDS011;43154;50.966;18.316;2023-04-24T00:31:20;13.40;;;5.60;;
57311;SDS011;43154;50.966;18.316;2023-04-24T00:33:46;12.40;;;5.80;;
57311;SDS011;43154;50.966;18.316;2023-04-24T00:36:11;13.40;;;6.00;;
57311;SDS011;43154;50.966;18.316;2023-04-24T00:38:37;12.50;;;5.60;;
57311;SDS011;43154;50.966;18.316;2023-04-24T00:41:02;12.80;;;5.60;;
57311;SDS011;43154;50.966;18.316;2023-04-24T00:43:28;14.80;;;5.70;;
57311;SDS011;43154;50.966;18.316;2023-04-24T00:45:53;12.60;;;5.60;;
57311;SDS011;43154;50.966;18.316;2023-04-24T00:48:20;14.50;;;5.90;;
57311;SDS011;43154;50.966;18.316;2023-04-24T00:50:45;12.90;;;5.30;;
57311;SDS011;43154;50.966;18.316;2023-04-24T00:53:11;12.00;;;5.60;;
57311;SDS011;43154;50.966;18.316;2023-04-24T00:55:37;11.90;;;5.10;;
57311;SDS011;43154;50.966;18.316;2023-04-24T00:58:03;14.00;;;5.40;;
57311;SDS011;43154;50.966;18.316;2023-04-24T01:00:28;13.50;;;5.70;;
57311;SDS011;43154;50.966;18.316;2023-04-24T01:02:55;13.50;;;5.80;;
57311;SDS011;43154;50.966;18.316;2023-04-24T01:05:20;14.90;;;6.20;;
57311;SDS011;43154;50.966;18.316;2023-04-24T01:07:46;13.80;;;5.90;;
57311;SDS011;43154;50.966;18.316;2023-04-24T01:10:14;13.90;;;6.00;;
57311;SDS011;43154;50.966;18.316;2023-04-24T01:12:40;14.50;;;5.90;;
57311;SDS011;43154;50.966;18.316;2023-04-24T01:15:06;16.10;;;6.70;;
57311;SDS011;43154;50.966;18.316;2023-04-24T01:17:33;14.30;;;6.40;;
57311;SDS011;43154;50.966;18.316;2023-04-24T01:19:59;15.70;;;6.50;;
57311;SDS011;43154;50.966;18.316;2023-04-24T01:22:26;16.30;;;7.30;;
57311;SDS011;43154;50.966;18.316;2023-04-24T01:24:52;17.00;;;6.90;;
57311;SDS011;43154;50.966;18.316;2023-04-24T01:27:19;15.50;;;6.70;;
57311;SDS011;43154;50.966;18.316;2023-04-24T01:29:45;15.40;;;7.00;;
57311;SDS011;43154;50.966;18.316;2023-04-24T01:32:12;15.70;;;7.10;;
57311;SDS011;43154;50.966;18.316;2023-04-24T01:34:38;15.80;;;7.20;;
57311;SDS011;43154;50.966;18.316;2023-04-24T01:37:04;16.30;;;7.50;;
57311;SDS011;43154;50.966;18.316;2023-04-24T01:39:30;16.80;;;8.00;;
57311;SDS011;43154;50.966;18.316;2023-04-24T01:41:56;17.20;;;7.90;;
57311;SDS011;43154;50.966;18.316;2023-04-24T01:44:22;15.80;;;8.10;;
57311;SDS011;43154;50.966;18.316;2023-04-24T01:46:48;17.80;;;8.50;;
57311;SDS011;43154;50.966;18.316;2023-04-24T01:49:14;18.90;;;8.30;;
57311;SDS011;43154;50.966;18.316;2023-04-24T01:51:39;17.90;;;8.90;;
57311;SDS011;43154;50.966;18.316;2023-04-24T01:54:05;19.20;;;9.20;;
57311;SDS011;43154;50.966;18.316;2023-04-24T01:56:31;16.10;;;8.40;;
57311;SDS011;43154;50.966;18.316;2023-04-24T01:58:58;19.70;;;9.50;;
57311;SDS011;43154;50.966;18.316;2023-04-24T02:01:25;19.80;;;9.10;;
57311;SDS011;43154;50.966;18.316;2023-04-24T02:03:50;16.00;;;8.60;;
57311;SDS011;43154;50.966;18.316;2023-04-24T02:06:16;17.50;;;9.00;;
57311;SDS011;43154;50.966;18.316;2023-04-24T02:08:42;14.50;;;7.50;;
57311;SDS011;43154;50.966;18.316;2023-04-24T02:11:10;20.00;;;9.30;;
57311;SDS011;43154;50.966;18.316;2023-04-24T02:13:36;19.20;;;8.40;;
57311;SDS011;43154;50.966;18.316;2023-04-24T02:16:01;17.90;;;8.90;;
57311;SDS011;43154;50.966;18.316;2023-04-24T02:18:27;16.80;;;8.50;;
57311;SDS011;43154;50.966;18.316;2023-04-24T02:20:53;20.30;;;8.70;;
57311;SDS011;43154;50.966;18.316;2023-04-24T02:23:19;17.80;;;8.90;;
57311;SDS011;43154;50.966;18.316;2023-04-24T02:25:45;16.30;;;8.60;;
57311;SDS011;43154;50.966;18.316;2023-04-24T02:28:11;17.40;;;9.10;;
57311;SDS011;43154;50.966;18.316;2023-04-24T02:30:36;17.40;;;8.60;;
57311;SDS011;43154;50.966;18.316;2023-04-24T02:33:02;20.50;;;8.80;;
57311;SDS011;43154;50.966;18.316;2023-04-24T02:35:28;16.60;;;9.00;;
57311;SDS011;43154;50.966;18.316;2023-04-24T02:37:54;17.50;;;9.20;;
57311;SDS011;43154;50.966;18.316;2023-04-24T02:40:19;19.00;;;8.70;;
57311;SDS011;43154;50.966;18.316;2023-04-24T02:42:45;18.20;;;9.00;;
57311;SDS011;43154;50.966;18.316;2023-04-24T02:45:10;20.40;;;9.30;;
57311;SDS011;43154;50.966;18.316;2023-04-24T02:47:36;17.90;;;7.70;;
57311;SDS011;43154;50.966;18.316;2023-04-24T02:50:02;21.20;;;9.00;;
57311;SDS011;43154;50.966;18.316;2023-04-24T02:52:28;17.20;;;8.80;;
57311;SDS011;43154;50.966;18.316;2023-04-24T02:54:54;17.80;;;8.40;;
57311;SDS011;43154;50.966;18.316;2023-04-24T02:57:19;16.30;;;8.50;;
57311;SDS011;43154;50.966;18.316;2023-04-24T02:59:45;19.20;;;8.40;;
57311;SDS011;43154;50.966;18.316;2023-04-24T03:02:11;18.50;;;8.50;;
57311;SDS011;43154;50.966;18.316;2023-04-24T03:04:36;15.40;;;8.30;;
57311;SDS011;43154;50.966;18.316;2023-04-24T03:07:02;17.00;;;8.30;;
57311;SDS011;43154;50.966;18.316;2023-04-24T03:09:28;17.00;;;7.90;;
57311;SDS011;43154;50.966;18.316;2023-04-24T03:11:53;16.00;;;8.00;;
57311;SDS011;43154;50.966;18.316;2023-04-24T03:14:19;17.90;;;7.80;;
57311;SDS011;43154;50.966;18.316;2023-04-24T03:16:45;15.30;;;7.80;;
57311;SDS011;43154;50.966;18.316;2023-04-24T03:19:10;16.50;;;7.80;;
57311;SDS011;43154;50.966;18.316;2023-04-24T03:21:36;15.70;;;6.70;;
57311;SDS011;43154;50.966;18.316;2023-04-24T03:24:06;14.90;;;6.70;;
57311;SDS011;43154;50.966;18.316;2023-04-24T03:26:33;14.80;;;7.10;;
57311;SDS011;43154;50.966;18.316;2023-04-24T03:28:58;14.30;;;6.70;;
57311;SDS011;43154;50.966;18.316;2023-04-24T03:31:24;15.20;;;7.00;;
57311;SDS011;43154;50.966;18.316;2023-04-24T03:33:50;15.30;;;7.10;;
57311;SDS011;43154;50.966;18.316;2023-04-24T03:36:16;15.50;;;7.80;;
57311;SDS011;43154;50.966;18.316;2023-04-24T03:38:42;14.70;;;7.10;;
57311;SDS011;43154;50.966;18.316;2023-04-24T03:41:08;15.60;;;7.50;;
57311;SDS011;43154;50.966;18.316;2023-04-24T03:43:33;15.50;;;7.70;;
57311;SDS011;43154;50.966;18.316;2023-04-24T03:46:00;17.50;;;8.10;;
57311;SDS011;43154;50.966;18.316;2023-04-24T03:48:25;21.90;;;8.40;;
57311;SDS011;43154;50.966;18.316;2023-04-24T03:50:51;15.90;;;7.80;;
57311;SDS011;43154;50.966;18.316;2023-04-24T03:53:17;16.40;;;7.80;;
57311;SDS011;43154;50.966;18.316;2023-04-24T03:55:42;18.10;;;8.20;;
57311;SDS011;43154;50.966;18.316;2023-04-24T03:58:08;15.40;;;7.90;;
57311;SDS011;43154;50.966;18.316;2023-04-24T04:00:33;16.70;;;8.40;;
57311;SDS011;43154;50.966;18.316;2023-04-24T04:02:59;16.20;;;8.20;;
57311;SDS011;43154;50.966;18.316;2023-04-24T04:05:25;19.00;;;8.60;;
57311;SDS011;43154;50.966;18.316;2023-04-24T04:07:51;17.30;;;8.20;;
57311;SDS011;43154;50.966;18.316;2023-04-24T04:10:16;17.10;;;8.90;;
57311;SDS011;43154;50.966;18.316;2023-04-24T04:12:42;18.30;;;8.50;;
57311;SDS011;43154;50.966;18.316;2023-04-24T04:15:08;17.00;;;8.50;;
57311;SDS011;43154;50.966;18.316;2023-04-24T04:17:34;16.80;;;8.30;;
57311;SDS011;43154;50.966;18.316;2023-04-24T04:20:00;18.20;;;9.00;;
57311;SDS011;43154;50.966;18.316;2023-04-24T04:22:26;16.50;;;8.40;;
57311;SDS011;43154;50.966;18.316;2023-04-24T04:24:52;17.20;;;9.00;;
57311;SDS011;43154;50.966;18.316;2023-04-24T04:27:18;17.20;;;8.70;;
57311;SDS011;43154;50.966;18.316;2023-04-24T04:29:44;16.90;;;9.20;;
57311;SDS011;43154;50.966;18.316;2023-04-24T04:32:09;17.50;;;9.20;;
57311;SDS011;43154;50.966;18.316;2023-04-24T04:34:35;17.70;;;8.70;;
57311;SDS011;43154;50.966;18.316;2023-04-24T04:37:03;17.30;;;8.50;;
57311;SDS011;43154;50.966;18.316;2023-04-24T04:39:28;18.30;;;8.70;;
57311;SDS011;43154;50.966;18.316;2023-04-24T04:41:55;19.40;;;9.40;;
57311;SDS011;43154;50.966;18.316;2023-04-24T04:44:20;17.50;;;9.20;;
57311;SDS011;43154;50.966;18.316;2023-04-24T04:46:45;18.60;;;9.20;;
57311;SDS011;43154;50.966;18.316;2023-04-24T04:49:13;18.90;;;8.90;;
57311;SDS011;43154;50.966;18.316;2023-04-24T04:51:42;18.70;;;9.50;;
57311;SDS011;43154;50.966;18.316;2023-04-24T04:54:07;16.70;;;8.50;;
57311;SDS011;43154;50.966;18.316;2023-04-24T04:56:33;17.20;;;8.70;;
57311;SDS011;43154;50.966;18.316;2023-04-24T04:58:58;18.10;;;8.70;;
57311;SDS011;43154;50.966;18.316;2023-04-24T05:01:24;17.10;;;8.30;;
57311;SDS011;43154;50.966;18.316;2023-04-24T05:03:52;16.90;;;8.60;;
57311;SDS011;43154;50.966;18.316;2023-04-24T05:06:18;15.50;;;8.00;;
57311;SDS011;43154;50.966;18.316;2023-04-24T05:08:44;17.60;;;8.60;;
57311;SDS011;43154;50.966;18.316;2023-04-24T05:11:09;18.00;;;8.90;;
57311;SDS011;43154;50.966;18.316;2023-04-24T05:13:35;19.30;;;9.00;;
57311;SDS011;43154;50.966;18.316;2023-04-24T05:16:00;19.40;;;9.10;;
57311;SDS011;43154;50.966;18.316;2023-04-24T05:18:26;18.50;;;8.80;;
57311;SDS011;43154;50.966;18.316;2023-04-24T05:20:52;17.30;;;9.20;;
57311;SDS011;43154;50.966;18.316;2023-04-24T05:23:17;17.10;;;8.90;;
57311;SDS011;43154;50.966;18.316;2023-04-24T05:25:43;17.20;;;8.70;;
57311;SDS011;43154;50.966;18.316;2023-04-24T05:28:09;16.90;;;9.10;;
57311;SDS011;43154;50.966;18.316;2023-04-24T05:30:34;20.90;;;9.00;;
57311;SDS011;43154;50.966;18.316;2023-04-24T05:33:00;18.20;;;8.80;;
57311;SDS011;43154;50.966;18.316;2023-04-24T05:35:26;17.40;;;9.20;;
57311;SDS011;43154;50.966;18.316;2023-04-24T05:37:52;19.70;;;9.10;;
57311;SDS011;43154;50.966;18.316;2023-04-24T05:40:17;17.10;;;8.80;;
57311;SDS011;43154;50.966;18.316;2023-04-24T05:42:43;17.80;;;8.80;;
57311;SDS011;43154;50.966;18.316;2023-04-24T05:45:08;17.50;;;9.20;;
57311;SDS011;43154;50.966;18.316;2023-04-24T05:47:40;18.00;;;9.60;;
57311;SDS011;43154;50.966;18.316;2023-04-24T05:50:06;19.20;;;9.70;;
57311;SDS011;43154;50.966;18.316;2023-04-24T05:52:32;19.00;;;9.70;;
57311;SDS011;43154;50.966;18.316;2023-04-24T05:54:58;18.30;;;8.80;;
57311;SDS011;43154;50.966;18.316;2023-04-24T05:57:24;18.50;;;9.10;;
57311;SDS011;43154;50.966;18.316;2023-04-24T05:59:50;22.00;;;9.80;;
57311;SDS011;43154;50.966;18.316;2023-04-24T06:02:16;18.90;;;9.50;;
57311;SDS011;43154;50.966;18.316;2023-04-24T06:04:42;19.40;;;9.40;;
57311;SDS011;43154;50.966;18.316;2023-04-24T06:07:10;18.40;;;8.90;;
57311;SDS011;43154;50.966;18.316;2023-04-24T06:09:36;17.00;;;9.10;;
57311;SDS011;43154;50.966;18.316;2023-04-24T06:12:02;19.70;;;8.50;;
57311;SDS011;43154;50.966;18.316;2023-04-24T06:14:27;16.00;;;8.60;;
57311;SDS011;43154;50.966;18.316;2023-04-24T06:16:53;16.60;;;8.60;;
57311;SDS011;43154;50.966;18.316;2023-04-24T06:19:19;19.10;;;8.70;;
57311;SDS011;43154;50.966;18.316;2023-04-24T06:21:44;18.90;;;9.10;;
57311;SDS011;43154;50.966;18.316;2023-04-24T06:24:10;17.60;;;8.20;;
57311;SDS011;43154;50.966;18.316;2023-04-24T06:26:36;17.80;;;8.90;;
57311;SDS011;43154;50.966;18.316;2023-04-24T06:29:02;16.60;;;8.30;;
57311;SDS011;43154;50.966;18.316;2023-04-24T06:31:28;16.30;;;8.30;;
57311;SDS011;43154;50.966;18.316;2023-04-24T06:33:53;17.70;;;9.10;;
57311;SDS011;43154;50.966;18.316;2023-04-24T06:36:19;20.30;;;9.20;;
57311;SDS011;43154;50.966;18.316;2023-04-24T06:38:44;17.10;;;8.60;;
57311;SDS011;43154;50.966;18.316;2023-04-24T06:41:10;16.70;;;8.20;;
57311;SDS011;43154;50.966;18.316;2023-04-24T06:43:36;16.20;;;7.60;;
57311;SDS011;43154;50.966;18.316;2023-04-24T06:46:02;16.00;;;8.20;;
57311;SDS011;43154;50.966;18.316;2023-04-24T06:48:28;15.80;;;8.00;;
57311;SDS011;43154;50.966;18.316;2023-04-24T06:50:54;17.80;;;7.80;;
57311;SDS011;43154;50.966;18.316;2023-04-24T06:53:19;16.80;;;7.60;;
57311;SDS011;43154;50.966;18.316;2023-04-24T06:55:45;17.60;;;7.80;;
57311;SDS011;43154;50.966;18.316;2023-04-24T06:58:11;14.40;;;6.90;;
57311;SDS011;43154;50.966;18.316;2023-04-24T07:00:37;14.10;;;6.70;;
57311;SDS011;43154;50.966;18.316;2023-04-24T07:03:03;14.60;;;6.70;;
57311;SDS011;43154;50.966;18.316;2023-04-24T07:05:30;15.80;;;6.80;;
57311;SDS011;43154;50.966;18.316;2023-04-24T07:07:56;16.40;;;7.00;;
57311;SDS011;43154;50.966;18.316;2023-04-24T07:10:23;15.10;;;6.50;;
57311;SDS011;43154;50.966;18.316;2023-04-24T07:12:49;16.20;;;6.70;;
57311;SDS011;43154;50.966;18.316;2023-04-24T07:15:15;13.90;;;6.50;;
57311;SDS011;43154;50.966;18.316;2023-04-24T07:17:41;16.20;;;6.60;;
57311;SDS011;43154;50.966;18.316;2023-04-24T07:20:10;15.90;;;6.90;;
57311;SDS011;43154;50.966;18.316;2023-04-24T07:22:39;15.00;;;6.40;;
57311;SDS011;43154;50.966;18.316;2023-04-24T07:25:06;14.90;;;6.80;;
57311;SDS011;43154;50.966;18.316;2023-04-24T07:27:33;13.30;;;5.90;;
57311;SDS011;43154;50.966;18.316;2023-04-24T07:29:59;15.90;;;5.90;;
57311;SDS011;43154;50.966;18.316;2023-04-24T07:32:24;13.70;;;5.80;;
57311;SDS011;43154;50.966;18.316;2023-04-24T07:34:51;11.60;;;5.70;;
57311;SDS011;43154;50.966;18.316;2023-04-24T07:37:17;12.60;;;5.70;;
57311;SDS011;43154;50.966;18.316;2023-04-24T07:39:43;26.80;;;14.40;;
57311;SDS011;43154;50.966;18.316;2023-04-24T07:42:09;22.30;;;12.10;;
57311;SDS011;43154;50.966;18.316;2023-04-24T07:44:34;14.40;;;7.60;;
57311;SDS011;43154;50.966;18.316;2023-04-24T07:47:01;18.70;;;7.50;;
57311;SDS011;43154;50.966;18.316;2023-04-24T07:49:26;14.40;;;6.00;;
57311;SDS011;43154;50.966;18.316;2023-04-24T07:51:53;14.10;;;6.10;;
57311;SDS011;43154;50.966;18.316;2023-04-24T07:54:18;16.40;;;6.30;;
57311;SDS011;43154;50.966;18.316;2023-04-24T07:56:44;13.30;;;6.00;;
57311;SDS011;43154;50.966;18.316;2023-04-24T07:59:10;12.00;;;5.80;;
57311;SDS011;43154;50.966;18.316;2023-04-24T08:01:36;13.50;;;6.00;;
57311;SDS011;43154;50.966;18.316;2023-04-24T08:04:02;15.20;;;6.40;;
57311;SDS011;43154;50.966;18.316;2023-04-24T08:06:28;12.50;;;5.80;;
57311;SDS011;43154;50.966;18.316;2023-04-24T08:08:55;12.80;;;5.30;;
57311;SDS011;43154;50.966;18.316;2023-04-24T08:11:21;12.00;;;5.50;;
57311;SDS011;43154;50.966;18.316;2023-04-24T08:13:47;17.80;;;5.80;;
57311;SDS011;43154;50.966;18.316;2023-04-24T08:16:13;11.70;;;5.30;;
57311;SDS011;43154;50.966;18.316;2023-04-24T08:18:38;21.30;;;5.60;;
57311;SDS011;43154;50.966;18.316;2023-04-24T08:21:04;12.30;;;5.20;;
57311;SDS011;43154;50.966;18.316;2023-04-24T08:23:30;10.30;;;4.70;;
57311;SDS011;43154;50.966;18.316;2023-04-24T08:25:55;14.50;;;5.30;;
57311;SDS011;43154;50.966;18.316;2023-04-24T08:28:22;11.60;;;5.00;;
57311;SDS011;43154;50.966;18.316;2023-04-24T08:30:48;12.10;;;5.20;;
57311;SDS011;43154;50.966;18.316;2023-04-24T08:33:14;12.90;;;4.90;;
57311;SDS011;43154;50.966;18.316;2023-04-24T08:35:40;12.80;;;5.60;;
57311;SDS011;43154;50.966;18.316;2023-04-24T08:38:06;11.50;;;4.70;;
57311;SDS011;43154;50.966;18.316;2023-04-24T08:40:32;12.40;;;4.90;;
57311;SDS011;43154;50.966;18.316;2023-04-24T08:43:00;12.20;;;5.30;;
57311;SDS011;43154;50.966;18.316;2023-04-24T08:45:26;11.10;;;5.00;;
57311;SDS011;43154;50.966;18.316;2023-04-24T08:47:52;13.10;;;5.40;;
57311;SDS011;43154;50.966;18.316;2023-04-24T09:22:58;11.60;;;5.20;;
57311;SDS011;43154;50.966;18.316;2023-04-24T09:25:33;12.50;;;4.90;;
57311;SDS011;43154;50.966;18.316;2023-04-24T09:28:01;10.90;;;4.40;;
57311;SDS011;43154;50.966;18.316;2023-04-24T09:30:28;11.10;;;5.20;;
57311;SDS011;43154;50.966;18.316;2023-04-24T09:33:10;11.50;;;4.90;;
57311;SDS011;43154;50.966;18.316;2023-04-24T09:35:40;10.80;;;4.80;;
57311;SDS011;43154;50.966;18.316;2023-04-24T09:38:16;10.60;;;5.00;;
57311;SDS011;43154;50.966;18.316;2023-04-24T09:40:41;11.60;;;5.30;;
57311;SDS011;43154;50.966;18.316;2023-04-24T09:43:10;11.50;;;5.40;;
57311;SDS011;43154;50.966;18.316;2023-04-24T09:45:37;11.40;;;5.10;;
57311;SDS011;43154;50.966;18.316;2023-04-24T09:48:04;13.20;;;5.40;;
57311;SDS011;43154;50.966;18.316;2023-04-24T09:50:31;11.60;;;5.10;;
57311;SDS011;43154;50.966;18.316;2023-04-24T09:52:58;11.50;;;5.70;;
57311;SDS011;43154;50.966;18.316;2023-04-24T09:55:27;11.00;;;4.80;;
57311;SDS011;43154;50.966;18.316;2023-04-24T09:57:53;11.80;;;5.50;;
57311;SDS011;43154;50.966;18.316;2023-04-24T10:00:22;11.90;;;5.10;;
57311;SDS011;43154;50.966;18.316;2023-04-24T10:03:01;11.10;;;5.00;;
57311;SDS011;43154;50.966;18.316;2023-04-24T10:05:35;11.50;;;5.30;;
57311;SDS011;43154;50.966;18.316;2023-04-24T10:08:03;12.80;;;5.70;;
57311;SDS011;43154;50.966;18.316;2023-04-24T10:10:34;11.20;;;5.10;;
57311;SDS011;43154;50.966;18.316;2023-04-24T10:13:04;12.70;;;5.40;;
57311;SDS011;43154;50.966;18.316;2023-04-24T10:15:30;10.90;;;5.20;;
57311;SDS011;43154;50.966;18.316;2023-04-24T10:17:57;12.80;;;5.50;;
57311;SDS011;43154;50.966;18.316;2023-04-24T10:20:25;10.00;;;4.80;;
57311;SDS011;43154;50.966;18.316;2023-04-24T10:22:54;11.70;;;5.40;;
57311;SDS011;43154;50.966;18.316;2023-04-24T10:25:22;11.50;;;5.30;;
57311;SDS011;43154;50.966;18.316;2023-04-24T10:27:50;14.50;;;5.40;;
57311;SDS011;43154;50.966;18.316;2023-04-24T10:30:18;11.60;;;5.50;;
57311;SDS011;43154;50.966;18.316;2023-04-24T10:32:47;11.30;;;5.50;;
57311;SDS011;43154;50.966;18.316;2023-04-24T10:35:14;12.80;;;6.00;;
57311;SDS011;43154;50.966;18.316;2023-04-24T10:37:43;13.70;;;6.60;;
57311;SDS011;43154;50.966;18.316;2023-04-24T10:40:16;13.50;;;6.80;;
57311;SDS011;43154;50.966;18.316;2023-04-24T10:42:44;28.30;;;15.60;;
57311;SDS011;43154;50.966;18.316;2023-04-24T10:45:22;31.60;;;15.00;;
57311;SDS011;43154;50.966;18.316;2023-04-24T10:47:58;23.40;;;11.10;;
57311;SDS011;43154;50.966;18.316;2023-04-24T10:50:34;14.30;;;5.70;;
57311;SDS011;43154;50.966;18.316;2023-04-24T10:53:15;14.90;;;6.80;;
57311;SDS011;43154;50.966;18.316;2023-04-24T10:55:45;28.80;;;8.50;;
57311;SDS011;43154;50.966;18.316;2023-04-24T10:58:13;18.00;;;8.60;;
57311;SDS011;43154;50.966;18.316;2023-04-24T11:00:42;13.50;;;6.90;;
57311;SDS011;43154;50.966;18.316;2023-04-24T11:03:29;12.50;;;6.10;;
57311;SDS011;43154;50.966;18.316;2023-04-24T11:06:07;11.80;;;5.40;;
57311;SDS011;43154;50.966;18.316;2023-04-24T11:11:09;18.30;;;5.60;;
57311;SDS011;43154;50.966;18.316;2023-04-24T11:18:50;13.10;;;6.50;;
57311;SDS011;43154;50.966;18.316;2023-04-24T11:21:19;12.00;;;5.80;;
57311;SDS011;43154;50.966;18.316;2023-04-24T11:23:46;12.80;;;5.60;;
57311;SDS011;43154;50.966;18.316;2023-04-24T11:26:21;12.80;;;6.40;;
57311;SDS011;43154;50.966;18.316;2023-04-24T11:28:49;12.20;;;5.80;;
57311;SDS011;43154;50.966;18.316;2023-04-24T11:31:35;14.20;;;6.50;;
57311;SDS011;43154;50.966;18.316;2023-04-24T11:34:07;12.00;;;5.50;;
57311;SDS011;43154;50.966;18.316;2023-04-24T11:36:37;11.30;;;5.50;;
57311;SDS011;43154;50.966;18.316;2023-04-24T11:39:03;11.60;;;5.60;;
57311;SDS011;43154;50.966;18.316;2023-04-24T11:41:29;15.60;;;5.70;;
57311;SDS011;43154;50.966;18.316;2023-04-24T11:43:55;12.70;;;5.80;;
57311;SDS011;43154;50.966;18.316;2023-04-24T11:46:22;19.70;;;6.10;;
57311;SDS011;43154;50.966;18.316;2023-04-24T11:48:48;12.70;;;6.00;;
57311;SDS011;43154;50.966;18.316;2023-04-24T11:51:14;11.60;;;5.70;;
57311;SDS011;43154;50.966;18.316;2023-04-24T11:53:40;12.70;;;5.70;;
57311;SDS011;43154;50.966;18.316;2023-04-24T11:56:05;12.80;;;5.50;;
57311;SDS011;43154;50.966;18.316;2023-04-24T11:58:35;15.80;;;5.70;;
57311;SDS011;43154;50.966;18.316;2023-04-24T12:01:02;10.80;;;5.30;;
57311;SDS011;43154;50.966;18.316;2023-04-24T12:03:28;11.20;;;5.10;;
57311;SDS011;43154;50.966;18.316;2023-04-24T12:06:06;11.50;;;5.20;;
57311;SDS011;43154;50.966;18.316;2023-04-24T12:08:33;14.20;;;6.10;;
57311;SDS011;43154;50.966;18.316;2023-04-24T12:11:00;12.40;;;5.10;;
57311;SDS011;43154;50.966;18.316;2023-04-24T12:13:27;12.50;;;5.40;;
57311;SDS011;43154;50.966;18.316;2023-04-24T12:15:53;12.80;;;5.40;;
57311;SDS011;43154;50.966;18.316;2023-04-24T12:18:21;13.00;;;5.50;;
57311;SDS011;43154;50.966;18.316;2023-04-24T12:20:48;14.20;;;5.70;;
57311;SDS011;43154;50.966;18.316;2023-04-24T12:23:13;12.50;;;5.80;;
57311;SDS011;43154;50.966;18.316;2023-04-24T12:25:39;12.40;;;6.10;;
57311;SDS011;43154;50.966;18.316;2023-04-24T12:30:39;13.50;;;5.90;;
57311;SDS011;43154;50.966;18.316;2023-04-24T12:33:21;11.60;;;5.80;;
57311;SDS011;43154;50.966;18.316;2023-04-24T12:35:53;13.60;;;5.70;;
57311;SDS011;43154;50.966;18.316;2023-04-24T12:38:23;11.90;;;5.50;;
57311;SDS011;43154;50.966;18.316;2023-04-24T12:41:04;15.30;;;5.80;;
57311;SDS011;43154;50.966;18.316;2023-04-24T12:43:33;12.90;;;5.00;;
57311;SDS011;43154;50.966;18.316;2023-04-24T12:45:59;12.00;;;5.20;;
57311;SDS011;43154;50.966;18.316;2023-04-24T12:48:26;12.70;;;4.80;;
57311;SDS011;43154;50.966;18.316;2023-04-24T12:50:52;14.40;;;5.00;;
57311;SDS011;43154;50.966;18.316;2023-04-24T12:53:18;12.60;;;5.40;;
57311;SDS011;43154;50.966;18.316;2023-04-24T12:55:44;12.10;;;5.30;;
57311;SDS011;43154;50.966;18.316;2023-04-24T12:58:20;11.70;;;5.40;;
57311;SDS011;43154;50.966;18.316;2023-04-24T13:00:46;11.80;;;5.20;;
57311;SDS011;43154;50.966;18.316;2023-04-24T13:03:12;11.20;;;5.20;;
57311;SDS011;43154;50.966;18.316;2023-04-24T13:05:39;11.90;;;5.30;;
57311;SDS011;43154;50.966;18.316;2023-04-24T13:08:05;23.50;;;6.20;;
57311;SDS011;43154;50.966;18.316;2023-04-24T13:10:31;11.90;;;5.40;;
57311;SDS011;43154;50.966;18.316;2023-04-24T13:12:57;22.80;;;6.00;;
57311;SDS011;43154;50.966;18.316;2023-04-24T13:15:23;12.10;;;5.10;;
57311;SDS011;43154;50.966;18.316;2023-04-24T13:17:50;11.20;;;5.10;;
57311;SDS011;43154;50.966;18.316;2023-04-24T13:20:17;12.00;;;4.90;;
57311;SDS011;43154;50.966;18.316;2023-04-24T13:22:43;13.90;;;5.30;;
57311;SDS011;43154;50.966;18.316;2023-04-24T13:25:09;15.70;;;4.70;;
57311;SDS011;43154;50.966;18.316;2023-04-24T13:27:38;13.00;;;5.10;;
57311;SDS011;43154;50.966;18.316;2023-04-24T13:30:05;11.40;;;5.20;;
57311;SDS011;43154;50.966;18.316;2023-04-24T13:32:32;11.00;;;4.80;;
57311;SDS011;43154;50.966;18.316;2023-04-24T13:34:59;11.70;;;5.10;;
57311;SDS011;43154;50.966;18.316;2023-04-24T13:37:25;11.50;;;5.30;;
57311;SDS011;43154;50.966;18.316;2023-04-24T13:39:51;11.60;;;5.10;;
57311;SDS011;43154;50.966;18.316;2023-04-24T13:42:17;10.40;;;4.90;;
57311;SDS011;43154;50.966;18.316;2023-04-24T13:44:44;11.30;;;5.10;;
57311;SDS011;43154;50.966;18.316;2023-04-24T13:47:09;11.20;;;5.40;;
57311;SDS011;43154;50.966;18.316;2023-04-24T13:49:35;12.50;;;5.60;;
57311;SDS011;43154;50.966;18.316;2023-04-24T13:52:01;12.60;;;5.90;;
57311;SDS011;43154;50.966;18.316;2023-04-24T13:54:27;12.10;;;5.70;;
57311;SDS011;43154;50.966;18.316;2023-04-24T13:56:56;12.10;;;6.30;;
57311;SDS011;43154;50.966;18.316;2023-04-24T13:59:22;14.00;;;7.20;;
57311;SDS011;43154;50.966;18.316;2023-04-24T14:01:48;13.80;;;6.30;;
57311;SDS011;43154;50.966;18.316;2023-04-24T14:04:14;13.80;;;6.50;;
57311;SDS011;43154;50.966;18.316;2023-04-24T14:06:40;14.20;;;6.90;;
57311;SDS011;43154;50.966;18.316;2023-04-24T14:09:06;13.60;;;6.80;;
57311;SDS011;43154;50.966;18.316;2023-04-24T14:11:33;43.70;;;8.70;;
57311;SDS011;43154;50.966;18.316;2023-04-24T14:13:59;14.50;;;6.90;;
57311;SDS011;43154;50.966;18.316;2023-04-24T14:16:25;17.90;;;7.20;;
57311;SDS011;43154;50.966;18.316;2023-04-24T14:18:50;15.50;;;6.90;;
57311;SDS011;43154;50.966;18.316;2023-04-24T14:21:16;26.10;;;7.60;;
57311;SDS011;43154;50.966;18.316;2023-04-24T14:23:42;12.80;;;6.80;;
57311;SDS011;43154;50.966;18.316;2023-04-24T14:26:08;14.00;;;7.10;;
57311;SDS011;43154;50.966;18.316;2023-04-24T14:28:34;15.90;;;7.10;;
57311;SDS011;43154;50.966;18.316;2023-04-24T14:31:00;14.40;;;6.70;;
57311;SDS011;43154;50.966;18.316;2023-04-24T14:33:26;23.80;;;7.60;;
57311;SDS011;43154;50.966;18.316;2023-04-24T14:35:52;16.00;;;6.90;;
57311;SDS011;43154;50.966;18.316;2023-04-24T14:38:18;13.50;;;7.00;;
57311;SDS011;43154;50.966;18.316;2023-04-24T14:40:43;14.90;;;7.40;;
57311;SDS011;43154;50.966;18.316;2023-04-24T14:43:09;13.30;;;7.10;;
57311;SDS011;43154;50.966;18.316;2023-04-24T14:45:36;15.80;;;7.10;;
57311;SDS011;43154;50.966;18.316;2023-04-24T14:48:02;18.10;;;7.40;;
57311;SDS011;43154;50.966;18.316;2023-04-24T14:50:29;16.10;;;7.20;;
57311;SDS011;43154;50.966;18.316;2023-04-24T14:52:57;15.30;;;7.60;;
57311;SDS011;43154;50.966;18.316;2023-04-24T14:55:26;14.80;;;6.90;;
57311;SDS011;43154;50.966;18.316;2023-04-24T14:57:52;15.30;;;7.60;;
57311;SDS011;43154;50.966;18.316;2023-04-24T15:00:20;16.70;;;8.50;;
57311;SDS011;43154;50.966;18.316;2023-04-24T15:02:51;17.40;;;7.40;;